Sider Gagliarda — CQIO4 — position and weather

sailwx.info

Track history (hours):
 
Tides and Currents Weather Stations Pressure Air Temp Water Temp Dewpoint Dewpoint Depression Visibility Wind Speed Wind Dir Waves Ship Positions

Sider Gagliarda

Last reported at 2018-Jun-18 10:20 UTC. Time now 2018-Jun-18 21:02 UTC.
Position N 38°41' E 015°14'.

Length 140 m; draft 8.1 m.

Type: Ship. MMSI: 255806021.

Date/timePositionNaut miles runAvg speedWind from/ knotsBaromVisibWave heightAir tempDewpointWater temp
2018-Jun-18 10:20N 38°41' E 015°14'610.5
2018-Jun-18 09:48N 38°37' E 015°18'410.5
2018-Jun-18 09:23N 38°34' E 015°22'510.5
2018-Jun-18 08:56N 38°31' E 015°27'510.4
2018-Jun-18 08:26N 38°27' E 015°32'510.1
2018-Jun-18 07:58N 38°24' E 015°36'5 9.9
2018-Jun-18 07:28N 38°20' E 015°40'6 8.2
2018-Jun-18 06:41N 38°14' E 015°38'211.3
2018-Jun-18 06:29N 38°12' E 015°37'5 9.8
2018-Jun-18 05:58N 38°07' E 015°36'4 9.1
2018-Jun-18 05:29N 38°03' E 015°35'1210.0
2018-Jun-18 04:19N 37°52' E 015°42'511.2
2018-Jun-18 03:52N 37°51' E 015°48'511.6
2018-Jun-18 03:28N 37°50' E 015°54'163 9.5
2018-Jun-17 10:21N 40°23' E 017°06'410.5
2018-Jun-17 10:00N 40°27' E 017°05'4 7.6
2018-Jun-17 09:31N 40°30' E 017°08'1 1.4
2018-Jun-17 08:57N 40°30' E 017°09'0 0.0
2018-Jun-17 08:27N 40°30' E 017°09'0 0.0
2018-Jun-17 07:54N 40°30' E 017°09'0 0.0
2018-Jun-17 07:21N 40°30' E 017°09'0 0.0
2018-Jun-17 06:54N 40°30' E 017°09'0 0.0
2018-Jun-17 06:27N 40°30' E 017°09'0 0.0
2018-Jun-17 05:54N 40°30' E 017°09'0 0.0
2018-Jun-17 05:24N 40°30' E 017°09'0 0.0
2018-Jun-17 04:57N 40°30' E 017°09'0 0.0
2018-Jun-17 04:27N 40°30' E 017°09'0 0.0
2018-Jun-17 04:00N 40°30' E 017°09'0 0.0
2018-Jun-17 03:30N 40°30' E 017°09'0 0.0
2018-Jun-17 03:00N 40°30' E 017°09'0 0.0
2018-Jun-17 02:30N 40°30' E 017°09'0 0.0
2018-Jun-17 02:00N 40°30' E 017°09'0 0.0
2018-Jun-17 01:30N 40°30' E 017°09'0 0.0
2018-Jun-17 01:00N 40°30' E 017°09'0 0.0
2018-Jun-17 00:30N 40°30' E 017°09'0 0.0
2018-Jun-17 00:00N 40°30' E 017°09'0 0.0
2018-Jun-16 23:28N 40°30' E 017°09'0 0.0
2018-Jun-16 23:00N 40°30' E 017°09'0 0.0
2018-Jun-16 22:30N 40°30' E 017°09'0 0.0
2018-Jun-16 22:00N 40°30' E 017°09'0 0.0
2018-Jun-16 21:30N 40°30' E 017°09'0 0.0
2018-Jun-16 20:58N 40°30' E 017°09'0 0.0
2018-Jun-16 20:28N 40°30' E 017°09'0 0.0
2018-Jun-16 20:00N 40°30' E 017°09'0 0.0
2018-Jun-16 19:24N 40°30' E 017°09'0 0.0
2018-Jun-16 18:52N 40°30' E 017°09'0 0.0
2018-Jun-16 18:28N 40°30' E 017°09'0 0.0
2018-Jun-16 17:58N 40°30' E 017°09'0 0.0
2018-Jun-16 17:24N 40°30' E 017°09'0 0.0
2018-Jun-16 16:58N 40°30' E 017°09'0 0.0
2018-Jun-16 16:28N 40°30' E 017°09'0 0.0
2018-Jun-16 15:54N 40°30' E 017°09'0 0.0
2018-Jun-16 15:28N 40°30' E 017°09'0 0.0
2018-Jun-16 14:58N 40°30' E 017°09'0 0.0
2018-Jun-16 14:24N 40°30' E 017°09'0 0.0
2018-Jun-16 13:54N 40°30' E 017°09'0 0.0
2018-Jun-16 13:28N 40°30' E 017°09'0 0.0
2018-Jun-16 12:58N 40°30' E 017°09'0 0.0
2018-Jun-16 12:28N 40°30' E 017°09'0 0.0
2018-Jun-16 11:58N 40°30' E 017°09'0 0.0
2018-Jun-16 11:28N 40°30' E 017°09'0 0.0
2018-Jun-16 10:58N 40°30' E 017°09'0 0.0
2018-Jun-16 10:28N 40°30' E 017°09'0 0.0
2018-Jun-16 09:58N 40°30' E 017°09'0 0.0
2018-Jun-16 09:28N 40°30' E 017°09'0 0.0
2018-Jun-16 08:58N 40°30' E 017°09'0 0.0
2018-Jun-16 08:22N 40°30' E 017°09'0 0.0
2018-Jun-16 06:58N 40°30' E 017°09'0 0.0
2018-Jun-16 06:28N 40°30' E 017°09'0 0.0
2018-Jun-16 05:58N 40°30' E 017°09'0 0.0
2018-Jun-16 05:28N 40°30' E 017°09'0 0.0
2018-Jun-16 04:58N 40°30' E 017°09'0 0.0
2018-Jun-16 04:24N 40°30' E 017°09'0 0.0
2018-Jun-16 03:58N 40°30' E 017°09'0 0.0
2018-Jun-16 03:28N 40°30' E 017°09'0 0.0
2018-Jun-16 02:54N 40°30' E 017°09'0 0.0
2018-Jun-16 02:24N 40°30' E 017°09'0 0.0
2018-Jun-16 01:54N 40°30' E 017°09'0 0.0
2018-Jun-16 01:30N 40°30' E 017°09'0 0.0
2018-Jun-16 01:00N 40°30' E 017°09'0 0.0
2018-Jun-16 00:30N 40°30' E 017°09'0 0.0
2018-Jun-16 00:00N 40°30' E 017°09'0 0.0
2018-Jun-15 23:30N 40°30' E 017°09'0 0.0
2018-Jun-15 23:00N 40°30' E 017°09'0 0.0
2018-Jun-15 22:31N 40°30' E 017°09'0 0.0
2018-Jun-15 22:00N 40°30' E 017°09'0 0.0
2018-Jun-15 21:30N 40°30' E 017°09'0 0.0
2018-Jun-15 21:00N 40°30' E 017°09'0 0.0
2018-Jun-15 20:30N 40°30' E 017°09'0 0.0
2018-Jun-15 20:01N 40°30' E 017°09'0 0.0
2018-Jun-15 19:31N 40°30' E 017°09'0 0.0
2018-Jun-15 19:00N 40°30' E 017°09'0 0.0
2018-Jun-15 18:28N 40°30' E 017°09'0 0.0
2018-Jun-15 17:58N 40°30' E 017°09'0 0.0
2018-Jun-15 17:30N 40°30' E 017°09'0 0.0
2018-Jun-15 17:00N 40°30' E 017°09'0 0.0
2018-Jun-15 16:30N 40°30' E 017°09'0 0.0
2018-Jun-15 15:58N 40°30' E 017°09'0 0.0
2018-Jun-15 15:28N 40°30' E 017°09'0 0.0
2018-Jun-15 15:00N 40°30' E 017°09'0 0.0
2018-Jun-15 14:31N 40°30' E 017°09'0 0.0
2018-Jun-15 14:00N 40°30' E 017°09'0 0.0
2018-Jun-15 13:30N 40°30' E 017°09'0 0.0
2018-Jun-15 13:00N 40°30' E 017°09'0 0.0
2018-Jun-15 12:30N 40°30' E 017°09'0 0.0
2018-Jun-15 11:58N 40°30' E 017°09'0 0.0
2018-Jun-15 11:30N 40°30' E 017°09'0 0.0
2018-Jun-15 11:00N 40°30' E 017°09'0 0.0
2018-Jun-15 10:28N 40°30' E 017°09'0 0.0
2018-Jun-15 10:00N 40°30' E 017°09'0 0.0
2018-Jun-15 08:48N 40°30' E 017°09'0 0.0
2018-Jun-15 08:22N 40°30' E 017°09'0 0.0
2018-Jun-15 07:52N 40°30' E 017°09'0 0.0
2018-Jun-15 07:28N 40°30' E 017°09'0 0.0
2018-Jun-15 06:58N 40°30' E 017°09'0 0.0
2018-Jun-15 06:22N 40°30' E 017°09'0 0.0
2018-Jun-15 05:58N 40°30' E 017°09'0 0.0
2018-Jun-15 05:28N 40°30' E 017°09'0 0.0
2018-Jun-15 05:00N 40°30' E 017°09'0 0.0
2018-Jun-15 04:28N 40°30' E 017°09'0 0.0
2018-Jun-15 04:00N 40°30' E 017°09'0 0.0
2018-Jun-15 03:30N 40°30' E 017°09'0 0.0
2018-Jun-15 03:00N 40°30' E 017°09'0 0.0
2018-Jun-15 02:30N 40°30' E 017°09'0 0.0
2018-Jun-15 02:00N 40°30' E 017°09'0 0.0
2018-Jun-15 01:30N 40°30' E 017°09'0 0.0
2018-Jun-15 01:00N 40°30' E 017°09'0 0.0
2018-Jun-15 00:30N 40°30' E 017°09'0 0.0
2018-Jun-15 00:00N 40°30' E 017°09'0 0.0
2018-Jun-14 23:24N 40°30' E 017°09'0 0.0
2018-Jun-14 23:00N 40°30' E 017°09'0 0.0
2018-Jun-14 22:30N 40°30' E 017°09'0 0.0
2018-Jun-14 22:00N 40°30' E 017°09'0 0.0
2018-Jun-14 21:30N 40°30' E 017°09'0 0.0
2018-Jun-14 21:00N 40°30' E 017°09'0 0.0
2018-Jun-14 20:30N 40°30' E 017°09'0 0.0
2018-Jun-14 20:00N 40°30' E 017°09'0 0.0
2018-Jun-14 19:30N 40°30' E 017°09'0 0.0
2018-Jun-14 19:00N 40°30' E 017°09'0 0.0
2018-Jun-14 18:27N 40°30' E 017°09'0 0.0
2018-Jun-14 18:00N 40°30' E 017°09'0 0.0
2018-Jun-14 17:24N 40°30' E 017°09'0 0.0
2018-Jun-14 16:54N 40°30' E 017°09'0 0.0
2018-Jun-14 16:09N 40°30' E 017°09'0 0.0
2018-Jun-14 15:57N 40°30' E 017°09'0 0.0
2018-Jun-14 15:24N 40°30' E 017°09'0 0.0
2018-Jun-14 14:57N 40°30' E 017°09'0 0.0
2018-Jun-14 14:27N 40°30' E 017°09'0 0.0
2018-Jun-14 13:57N 40°30' E 017°09'0 0.0
2018-Jun-14 13:27N 40°30' E 017°09'0 0.0
2018-Jun-14 12:57N 40°30' E 017°09'0 0.0
2018-Jun-14 12:24N 40°30' E 017°09'0 0.0
2018-Jun-14 12:00N 40°30' E 017°09'0 0.0
2018-Jun-14 11:30N 40°30' E 017°09'0 0.0
2018-Jun-14 10:51N 40°30' E 017°09'0 0.0
2018-Jun-14 10:27N 40°30' E 017°09'0 0.0
2018-Jun-14 09:57N 40°30' E 017°09'0 0.0
2018-Jun-14 08:48N 40°30' E 017°09'0 0.0
2018-Jun-14 08:15N 40°30' E 017°09'0 0.0
2018-Jun-14 07:57N 40°30' E 017°09'0 0.0
2018-Jun-14 07:21N 40°30' E 017°09'0 0.0
2018-Jun-14 06:51N 40°30' E 017°09'0 0.0
2018-Jun-14 06:21N 40°30' E 017°09'0 0.0
2018-Jun-14 05:57N 40°30' E 017°09'0 0.0
2018-Jun-14 05:27N 40°30' E 017°09'0 0.0
2018-Jun-14 04:57N 40°30' E 017°09'0 0.0
2018-Jun-14 04:30N 40°30' E 017°09'0 0.0
2018-Jun-14 03:57N 40°30' E 017°09'0 0.0
2018-Jun-14 03:27N 40°30' E 017°09'0 0.0
2018-Jun-14 03:00N 40°30' E 017°09'0 0.0
2018-Jun-14 02:30N 40°30' E 017°09'0 0.0
2018-Jun-14 01:57N 40°30' E 017°09'0 0.0
2018-Jun-14 01:30N 40°30' E 017°09'0 0.0
2018-Jun-14 01:00N 40°30' E 017°09'0 0.0
2018-Jun-14 00:24N 40°30' E 017°09'0 0.0
2018-Jun-13 23:57N 40°30' E 017°09'0 0.0
2018-Jun-13 23:27N 40°30' E 017°09'0 0.0
2018-Jun-13 22:57N 40°30' E 017°09'0 0.0
2018-Jun-13 22:30N 40°30' E 017°09'0 0.0
2018-Jun-13 22:00N 40°30' E 017°09'0 0.0
2018-Jun-13 21:30N 40°30' E 017°09'0 0.0
2018-Jun-13 21:00N 40°30' E 017°09'0 0.0
2018-Jun-13 20:30N 40°30' E 017°09'0 0.0
2018-Jun-13 20:00N 40°30' E 017°09'0 0.0
2018-Jun-13 19:18N 40°30' E 017°09'0 0.0
2018-Jun-13 19:00N 40°30' E 017°09'0 0.0
2018-Jun-13 18:21N 40°30' E 017°09'0 0.0
2018-Jun-13 17:03N 40°30' E 017°09'0 0.0
2018-Jun-13 16:51N 40°30' E 017°09'0 0.0
2018-Jun-13 16:21N 40°30' E 017°09'0 0.0
2018-Jun-13 15:57N 40°30' E 017°09'0 0.0
2018-Jun-13 15:03N 40°30' E 017°09'0 0.0
2018-Jun-13 14:57N 40°30' E 017°09'0 0.0
2018-Jun-13 14:21N 40°30' E 017°09'0 0.0
2018-Jun-13 13:42N 40°30' E 017°09'0 0.0
2018-Jun-13 13:27N 40°30' E 017°09'0 0.0
2018-Jun-13 13:00N 40°30' E 017°09'0 0.0
2018-Jun-13 12:30N 40°30' E 017°09'0 0.0
2018-Jun-13 11:51N 40°30' E 017°09'0 0.0
2018-Jun-13 11:27N 40°30' E 017°09'0 0.0
2018-Jun-13 10:57N 40°30' E 017°09'0 0.0
2018-Jun-13 10:27N 40°30' E 017°09'0 0.0
2018-Jun-13 10:00N 40°30' E 017°09'0 0.0
2018-Jun-13 09:27N 40°30' E 017°09'0 0.0
2018-Jun-13 09:00N 40°30' E 017°09'0 0.0
2018-Jun-13 08:15N 40°30' E 017°09'0 0.0
2018-Jun-13 07:57N 40°30' E 017°09'0 0.0
2018-Jun-13 07:21N 40°30' E 017°09'0 0.0
2018-Jun-13 07:00N 40°30' E 017°09'0 0.0
2018-Jun-13 06:27N 40°30' E 017°09'0 0.0
2018-Jun-13 05:51N 40°30' E 017°09'0 0.0
2018-Jun-13 05:27N 40°30' E 017°09'0 0.0
2018-Jun-13 05:00N 40°30' E 017°09'0 0.0
2018-Jun-13 04:30N 40°30' E 017°09'0 0.0
2018-Jun-13 03:51N 40°30' E 017°09'0 0.0
2018-Jun-13 03:27N 40°30' E 017°09'0 0.0
2018-Jun-13 02:57N 40°30' E 017°09'0 0.0
2018-Jun-13 02:27N 40°30' E 017°09'0 0.0
2018-Jun-13 02:00N 40°30' E 017°09'0 0.0
2018-Jun-13 01:27N 40°30' E 017°09'0 0.0
2018-Jun-13 00:51N 40°30' E 017°09'0 0.0
2018-Jun-13 00:27N 40°30' E 017°09'0 0.0
2018-Jun-13 00:00N 40°30' E 017°09'0 0.0
2018-Jun-12 23:30N 40°30' E 017°09'0 0.6
2018-Jun-12 23:00N 40°30' E 017°09'2 4.2
2018-Jun-12 22:30N 40°28' E 017°08'5 9.6
2018-Jun-12 22:00N 40°23' E 017°09'228 7.8
2018-Jun-11 16:48N 43°34' E 014°22'412.6
2018-Jun-11 16:30N 43°36' E 014°18'1312.4
2018-Jun-11 15:26N 43°45' E 014°03'812.4
2018-Jun-11 14:47N 43°50' E 013°55'1512.5
2018-Jun-11 13:36N 43°59' E 013°38'3412.8
2018-Jun-11 10:58N 44°18' E 012°59'1813.4
2018-Jun-11 09:36N 44°27' E 012°37'16 1.2
2018-Jun-10 19:48N 44°28' E 012°15'0 0.0
2018-Jun-10 16:48N 44°28' E 012°15'5 0.2
2018-Jun-09 20:48N 44°31' E 012°20'  
Track history (hours):
 
Tides and Currents Weather Stations Pressure Air Temp Water Temp Dewpoint Dewpoint Depression Visibility Wind Speed Wind Dir Waves Ship Positions

Sider Gagliarda

Last reported at 2018-Jun-18 10:20 UTC. Time now 2018-Jun-18 21:02 UTC.
Position N 38°41' E 015°14'.

Length 140 m; draft 8.1 m.

Type: Ship. MMSI: 255806021.

Date/timePositionNaut miles runAvg speedWind from/ knotsBaromVisibWave heightAir tempDewpointWater temp
2018-Jun-18 10:20N 38°41' E 015°14'610.5
2018-Jun-18 09:48N 38°37' E 015°18'410.5
2018-Jun-18 09:23N 38°34' E 015°22'510.5
2018-Jun-18 08:56N 38°31' E 015°27'510.4
2018-Jun-18 08:26N 38°27' E 015°32'510.1
2018-Jun-18 07:58N 38°24' E 015°36'5 9.9
2018-Jun-18 07:28N 38°20' E 015°40'6 8.2
2018-Jun-18 06:41N 38°14' E 015°38'211.3
2018-Jun-18 06:29N 38°12' E 015°37'5 9.8
2018-Jun-18 05:58N 38°07' E 015°36'4 9.1
2018-Jun-18 05:29N 38°03' E 015°35'1210.0
2018-Jun-18 04:19N 37°52' E 015°42'511.2
2018-Jun-18 03:52N 37°51' E 015°48'511.6
2018-Jun-18 03:28N 37°50' E 015°54'163 9.5
2018-Jun-17 10:21N 40°23' E 017°06'410.5
2018-Jun-17 10:00N 40°27' E 017°05'4 7.6
2018-Jun-17 09:31N 40°30' E 017°08'1 1.4
2018-Jun-17 08:57N 40°30' E 017°09'0 0.0
2018-Jun-17 08:27N 40°30' E 017°09'0 0.0
2018-Jun-17 07:54N 40°30' E 017°09'0 0.0
2018-Jun-17 07:21N 40°30' E 017°09'0 0.0
2018-Jun-17 06:54N 40°30' E 017°09'0 0.0
2018-Jun-17 06:27N 40°30' E 017°09'0 0.0
2018-Jun-17 05:54N 40°30' E 017°09'0 0.0
2018-Jun-17 05:24N 40°30' E 017°09'0 0.0
2018-Jun-17 04:57N 40°30' E 017°09'0 0.0
2018-Jun-17 04:27N 40°30' E 017°09'0 0.0
2018-Jun-17 04:00N 40°30' E 017°09'0 0.0
2018-Jun-17 03:30N 40°30' E 017°09'0 0.0
2018-Jun-17 03:00N 40°30' E 017°09'0 0.0
2018-Jun-17 02:30N 40°30' E 017°09'0 0.0
2018-Jun-17 02:00N 40°30' E 017°09'0 0.0
2018-Jun-17 01:30N 40°30' E 017°09'0 0.0
2018-Jun-17 01:00N 40°30' E 017°09'0 0.0
2018-Jun-17 00:30N 40°30' E 017°09'0 0.0
2018-Jun-17 00:00N 40°30' E 017°09'0 0.0
2018-Jun-16 23:28N 40°30' E 017°09'0 0.0
2018-Jun-16 23:00N 40°30' E 017°09'0 0.0
2018-Jun-16 22:30N 40°30' E 017°09'0 0.0
2018-Jun-16 22:00N 40°30' E 017°09'0 0.0
2018-Jun-16 21:30N 40°30' E 017°09'0 0.0
2018-Jun-16 20:58N 40°30' E 017°09'0 0.0
2018-Jun-16 20:28N 40°30' E 017°09'0 0.0
2018-Jun-16 20:00N 40°30' E 017°09'0 0.0
2018-Jun-16 19:24N 40°30' E 017°09'0 0.0
2018-Jun-16 18:52N 40°30' E 017°09'0 0.0
2018-Jun-16 18:28N 40°30' E 017°09'0 0.0
2018-Jun-16 17:58N 40°30' E 017°09'0 0.0
2018-Jun-16 17:24N 40°30' E 017°09'0 0.0
2018-Jun-16 16:58N 40°30' E 017°09'0 0.0
2018-Jun-16 16:28N 40°30' E 017°09'0 0.0
2018-Jun-16 15:54N 40°30' E 017°09'0 0.0
2018-Jun-16 15:28N 40°30' E 017°09'0 0.0
2018-Jun-16 14:58N 40°30' E 017°09'0 0.0
2018-Jun-16 14:24N 40°30' E 017°09'0 0.0
2018-Jun-16 13:54N 40°30' E 017°09'0 0.0
2018-Jun-16 13:28N 40°30' E 017°09'0 0.0
2018-Jun-16 12:58N 40°30' E 017°09'0 0.0
2018-Jun-16 12:28N 40°30' E 017°09'0 0.0
2018-Jun-16 11:58N 40°30' E 017°09'0 0.0
2018-Jun-16 11:28N 40°30' E 017°09'0 0.0
2018-Jun-16 10:58N 40°30' E 017°09'0 0.0
2018-Jun-16 10:28N 40°30' E 017°09'0 0.0
2018-Jun-16 09:58N 40°30' E 017°09'0 0.0
2018-Jun-16 09:28N 40°30' E 017°09'0 0.0
2018-Jun-16 08:58N 40°30' E 017°09'0 0.0
2018-Jun-16 08:22N 40°30' E 017°09'0 0.0
2018-Jun-16 06:58N 40°30' E 017°09'0 0.0
2018-Jun-16 06:28N 40°30' E 017°09'0 0.0
2018-Jun-16 05:58N 40°30' E 017°09'0 0.0
2018-Jun-16 05:28N 40°30' E 017°09'0 0.0
2018-Jun-16 04:58N 40°30' E 017°09'0 0.0
2018-Jun-16 04:24N 40°30' E 017°09'0 0.0
2018-Jun-16 03:58N 40°30' E 017°09'0 0.0
2018-Jun-16 03:28N 40°30' E 017°09'0 0.0
2018-Jun-16 02:54N 40°30' E 017°09'0 0.0
2018-Jun-16 02:24N 40°30' E 017°09'0 0.0
2018-Jun-16 01:54N 40°30' E 017°09'0 0.0
2018-Jun-16 01:30N 40°30' E 017°09'0 0.0
2018-Jun-16 01:00N 40°30' E 017°09'0 0.0
2018-Jun-16 00:30N 40°30' E 017°09'0 0.0
2018-Jun-16 00:00N 40°30' E 017°09'0 0.0
2018-Jun-15 23:30N 40°30' E 017°09'0 0.0
2018-Jun-15 23:00N 40°30' E 017°09'0 0.0
2018-Jun-15 22:31N 40°30' E 017°09'0 0.0
2018-Jun-15 22:00N 40°30' E 017°09'0 0.0
2018-Jun-15 21:30N 40°30' E 017°09'0 0.0
2018-Jun-15 21:00N 40°30' E 017°09'0 0.0
2018-Jun-15 20:30N 40°30' E 017°09'0 0.0
2018-Jun-15 20:01N 40°30' E 017°09'0 0.0
2018-Jun-15 19:31N 40°30' E 017°09'0 0.0
2018-Jun-15 19:00N 40°30' E 017°09'0 0.0
2018-Jun-15 18:28N 40°30' E 017°09'0 0.0
2018-Jun-15 17:58N 40°30' E 017°09'0 0.0
2018-Jun-15 17:30N 40°30' E 017°09'0 0.0
2018-Jun-15 17:00N 40°30' E 017°09'0 0.0
2018-Jun-15 16:30N 40°30' E 017°09'0 0.0
2018-Jun-15 15:58N 40°30' E 017°09'0 0.0
2018-Jun-15 15:28N 40°30' E 017°09'0 0.0
2018-Jun-15 15:00N 40°30' E 017°09'0 0.0
2018-Jun-15 14:31N 40°30' E 017°09'0 0.0
2018-Jun-15 14:00N 40°30' E 017°09'0 0.0
2018-Jun-15 13:30N 40°30' E 017°09'0 0.0
2018-Jun-15 13:00N 40°30' E 017°09'0 0.0
2018-Jun-15 12:30N 40°30' E 017°09'0 0.0
2018-Jun-15 11:58N 40°30' E 017°09'0 0.0
2018-Jun-15 11:30N 40°30' E 017°09'0 0.0
2018-Jun-15 11:00N 40°30' E 017°09'0 0.0
2018-Jun-15 10:28N 40°30' E 017°09'0 0.0
2018-Jun-15 10:00N 40°30' E 017°09'0 0.0
2018-Jun-15 08:48N 40°30' E 017°09'0 0.0
2018-Jun-15 08:22N 40°30' E 017°09'0 0.0
2018-Jun-15 07:52N 40°30' E 017°09'0 0.0
2018-Jun-15 07:28N 40°30' E 017°09'0 0.0
2018-Jun-15 06:58N 40°30' E 017°09'0 0.0
2018-Jun-15 06:22N 40°30' E 017°09'0 0.0
2018-Jun-15 05:58N 40°30' E 017°09'0 0.0
2018-Jun-15 05:28N 40°30' E 017°09'0 0.0
2018-Jun-15 05:00N 40°30' E 017°09'0 0.0
2018-Jun-15 04:28N 40°30' E 017°09'0 0.0
2018-Jun-15 04:00N 40°30' E 017°09'0 0.0
2018-Jun-15 03:30N 40°30' E 017°09'0 0.0
2018-Jun-15 03:00N 40°30' E 017°09'0 0.0
2018-Jun-15 02:30N 40°30' E 017°09'0 0.0
2018-Jun-15 02:00N 40°30' E 017°09'0 0.0
2018-Jun-15 01:30N 40°30' E 017°09'0 0.0
2018-Jun-15 01:00N 40°30' E 017°09'0 0.0
2018-Jun-15 00:30N 40°30' E 017°09'0 0.0
2018-Jun-15 00:00N 40°30' E 017°09'0 0.0
2018-Jun-14 23:24N 40°30' E 017°09'0 0.0
2018-Jun-14 23:00N 40°30' E 017°09'0 0.0
2018-Jun-14 22:30N 40°30' E 017°09'0 0.0
2018-Jun-14 22:00N 40°30' E 017°09'0 0.0
2018-Jun-14 21:30N 40°30' E 017°09'0 0.0
2018-Jun-14 21:00N 40°30' E 017°09'0 0.0
2018-Jun-14 20:30N 40°30' E 017°09'0 0.0
2018-Jun-14 20:00N 40°30' E 017°09'0 0.0
2018-Jun-14 19:30N 40°30' E 017°09'0 0.0
2018-Jun-14 19:00N 40°30' E 017°09'0 0.0
2018-Jun-14 18:27N 40°30' E 017°09'0 0.0
2018-Jun-14 18:00N 40°30' E 017°09'0 0.0
2018-Jun-14 17:24N 40°30' E 017°09'0 0.0
2018-Jun-14 16:54N 40°30' E 017°09'0 0.0
2018-Jun-14 16:09N 40°30' E 017°09'0 0.0
2018-Jun-14 15:57N 40°30' E 017°09'0 0.0
2018-Jun-14 15:24N 40°30' E 017°09'0 0.0
2018-Jun-14 14:57N 40°30' E 017°09'0 0.0
2018-Jun-14 14:27N 40°30' E 017°09'0 0.0
2018-Jun-14 13:57N 40°30' E 017°09'0 0.0
2018-Jun-14 13:27N 40°30' E 017°09'0 0.0
2018-Jun-14 12:57N 40°30' E 017°09'0 0.0
2018-Jun-14 12:24N 40°30' E 017°09'0 0.0
2018-Jun-14 12:00N 40°30' E 017°09'0 0.0
2018-Jun-14 11:30N 40°30' E 017°09'0 0.0
2018-Jun-14 10:51N 40°30' E 017°09'0 0.0
2018-Jun-14 10:27N 40°30' E 017°09'0 0.0
2018-Jun-14 09:57N 40°30' E 017°09'0 0.0
2018-Jun-14 08:48N 40°30' E 017°09'0 0.0
2018-Jun-14 08:15N 40°30' E 017°09'0 0.0
2018-Jun-14 07:57N 40°30' E 017°09'0 0.0
2018-Jun-14 07:21N 40°30' E 017°09'0 0.0
2018-Jun-14 06:51N 40°30' E 017°09'0 0.0
2018-Jun-14 06:21N 40°30' E 017°09'0 0.0
2018-Jun-14 05:57N 40°30' E 017°09'0 0.0
2018-Jun-14 05:27N 40°30' E 017°09'0 0.0
2018-Jun-14 04:57N 40°30' E 017°09'0 0.0
2018-Jun-14 04:30N 40°30' E 017°09'0 0.0
2018-Jun-14 03:57N 40°30' E 017°09'0 0.0
2018-Jun-14 03:27N 40°30' E 017°09'0 0.0
2018-Jun-14 03:00N 40°30' E 017°09'0 0.0
2018-Jun-14 02:30N 40°30' E 017°09'0 0.0
2018-Jun-14 01:57N 40°30' E 017°09'0 0.0
2018-Jun-14 01:30N 40°30' E 017°09'0 0.0
2018-Jun-14 01:00N 40°30' E 017°09'0 0.0
2018-Jun-14 00:24N 40°30' E 017°09'0 0.0
2018-Jun-13 23:57N 40°30' E 017°09'0 0.0
2018-Jun-13 23:27N 40°30' E 017°09'0 0.0
2018-Jun-13 22:57N 40°30' E 017°09'0 0.0
2018-Jun-13 22:30N 40°30' E 017°09'0 0.0
2018-Jun-13 22:00N 40°30' E 017°09'0 0.0
2018-Jun-13 21:30N 40°30' E 017°09'0 0.0
2018-Jun-13 21:00N 40°30' E 017°09'0 0.0
2018-Jun-13 20:30N 40°30' E 017°09'0 0.0
2018-Jun-13 20:00N 40°30' E 017°09'0 0.0
2018-Jun-13 19:18N 40°30' E 017°09'0 0.0
2018-Jun-13 19:00N 40°30' E 017°09'0 0.0
2018-Jun-13 18:21N 40°30' E 017°09'0 0.0
2018-Jun-13 17:03N 40°30' E 017°09'0 0.0
2018-Jun-13 16:51N 40°30' E 017°09'0 0.0
2018-Jun-13 16:21N 40°30' E 017°09'0 0.0
2018-Jun-13 15:57N 40°30' E 017°09'0 0.0
2018-Jun-13 15:03N 40°30' E 017°09'0 0.0
2018-Jun-13 14:57N 40°30' E 017°09'0 0.0
2018-Jun-13 14:21N 40°30' E 017°09'0 0.0
2018-Jun-13 13:42N 40°30' E 017°09'0 0.0
2018-Jun-13 13:27N 40°30' E 017°09'0 0.0
2018-Jun-13 13:00N 40°30' E 017°09'0 0.0
2018-Jun-13 12:30N 40°30' E 017°09'0 0.0
2018-Jun-13 11:51N 40°30' E 017°09'0 0.0
2018-Jun-13 11:27N 40°30' E 017°09'0 0.0
2018-Jun-13 10:57N 40°30' E 017°09'0 0.0
2018-Jun-13 10:27N 40°30' E 017°09'0 0.0
2018-Jun-13 10:00N 40°30' E 017°09'0 0.0
2018-Jun-13 09:27N 40°30' E 017°09'0 0.0
2018-Jun-13 09:00N 40°30' E 017°09'0 0.0
2018-Jun-13 08:15N 40°30' E 017°09'0 0.0
2018-Jun-13 07:57N 40°30' E 017°09'0 0.0
2018-Jun-13 07:21N 40°30' E 017°09'0 0.0
2018-Jun-13 07:00N 40°30' E 017°09'0 0.0
2018-Jun-13 06:27N 40°30' E 017°09'0 0.0
2018-Jun-13 05:51N 40°30' E 017°09'0 0.0
2018-Jun-13 05:27N 40°30' E 017°09'0 0.0
2018-Jun-13 05:00N 40°30' E 017°09'0 0.0
2018-Jun-13 04:30N 40°30' E 017°09'0 0.0
2018-Jun-13 03:51N 40°30' E 017°09'0 0.0
2018-Jun-13 03:27N 40°30' E 017°09'0 0.0
2018-Jun-13 02:57N 40°30' E 017°09'0 0.0
2018-Jun-13 02:27N 40°30' E 017°09'0 0.0
2018-Jun-13 02:00N 40°30' E 017°09'0 0.0
2018-Jun-13 01:27N 40°30' E 017°09'0 0.0
2018-Jun-13 00:51N 40°30' E 017°09'0 0.0
2018-Jun-13 00:27N 40°30' E 017°09'0 0.0
2018-Jun-13 00:00N 40°30' E 017°09'0 0.0
2018-Jun-12 23:30N 40°30' E 017°09'0 0.6
2018-Jun-12 23:00N 40°30' E 017°09'2 4.2
2018-Jun-12 22:30N 40°28' E 017°08'5 9.6
2018-Jun-12 22:00N 40°23' E 017°09'228 7.8
2018-Jun-11 16:48N 43°34' E 014°22'412.6
2018-Jun-11 16:30N 43°36' E 014°18'1312.4
2018-Jun-11 15:26N 43°45' E 014°03'812.4
2018-Jun-11 14:47N 43°50' E 013°55'1512.5
2018-Jun-11 13:36N 43°59' E 013°38'3412.8
2018-Jun-11 10:58N 44°18' E 012°59'1813.4
2018-Jun-11 09:36N 44°27' E 012°37'16 1.2
2018-Jun-10 19:48N 44°28' E 012°15'0 0.0
2018-Jun-10 16:48N 44°28' E 012°15'5 0.2
2018-Jun-09 20:48N 44°31' E 012°20'  

Dump ship's entire track history